createdAt,value
2018-12-15T00:00:21.882Z,42.30
2018-12-15T00:01:24.360Z,46.45
2018-12-15T00:02:26.807Z,39.23
2018-12-15T00:03:29.239Z,34.48
2018-12-15T00:04:31.680Z,45.03
2018-12-15T00:05:34.136Z,36.42
2018-12-15T00:06:36.706Z,36.98
2018-12-15T00:07:39.162Z,46.30
2018-12-15T00:08:41.699Z,39.18
2018-12-15T00:09:44.146Z,48.52
2018-12-15T00:10:46.584Z,45.58
2018-12-15T00:11:49.041Z,46.75
2018-12-15T00:12:51.475Z,46.20
2018-12-15T00:13:53.968Z,38.40
2018-12-15T00:14:56.417Z,37.13
2018-12-15T00:15:58.968Z,37.63
2018-12-15T00:17:05.749Z,35.85
2018-12-15T00:18:06.056Z,66.65
2018-12-15T00:19:08.523Z,57.98
2018-12-15T00:20:10.979Z,46.98
2018-12-15T00:21:13.442Z,41.10
2018-12-15T00:22:15.882Z,38.88
2018-12-15T00:23:18.339Z,44.60
2018-12-15T00:24:20.799Z,36.03
2018-12-15T00:25:23.247Z,41.53
2018-12-15T00:26:25.746Z,35.15
2018-12-15T00:27:28.202Z,36.08
2018-12-15T00:28:30.648Z,30.02
2018-12-15T00:29:33.086Z,32.13
2018-12-15T00:30:35.540Z,31.30
2018-12-15T00:31:37.988Z,31.95
2018-12-15T00:32:40.439Z,37.05
2018-12-15T00:33:42.883Z,33.88
2018-12-15T00:34:45.332Z,35.70
2018-12-15T00:35:47.787Z,33.38
2018-12-15T00:36:50.252Z,33.38
2018-12-15T00:37:52.708Z,29.40
2018-12-15T00:38:55.163Z,33.05
2018-12-15T00:39:57.628Z,30.95
2018-12-15T00:41:00.074Z,33.95
2018-12-15T00:42:02.530Z,33.00
2018-12-15T00:43:04.994Z,33.30
2018-12-15T00:44:07.475Z,32.05
2018-12-15T00:45:09.914Z,36.42
2018-12-15T00:46:12.352Z,35.60
2018-12-15T00:47:14.815Z,34.55
2018-12-15T00:48:17.292Z,38.00
2018-12-15T00:49:19.731Z,31.20
2018-12-15T00:50:22.176Z,30.48
2018-12-15T00:51:24.621Z,31.73
2018-12-15T00:52:27.078Z,29.25
2018-12-15T00:53:29.526Z,33.25
2018-12-15T00:54:31.965Z,32.20
2018-12-15T00:55:34.437Z,27.07
2018-12-15T00:56:36.880Z,35.10
2018-12-15T00:57:39.344Z,33.00
2018-12-15T00:58:41.790Z,32.13
2018-12-15T00:59:44.228Z,33.53
2018-12-15T01:00:46.659Z,40.43
2018-12-15T01:01:49.119Z,34.33
2018-12-15T01:02:51.572Z,44.10
2018-12-15T01:03:54.016Z,37.25
2018-12-15T01:04:56.455Z,36.90
2018-12-15T01:05:58.976Z,38.88
2018-12-15T01:07:01.414Z,37.95
2018-12-15T01:08:03.962Z,35.28
2018-12-15T01:09:06.500Z,37.95
2018-12-15T01:10:08.935Z,31.37
2018-12-15T01:11:11.466Z,38.13
2018-12-15T01:12:13.935Z,32.93
2018-12-15T01:13:16.566Z,36.73
2018-12-15T01:14:19.030Z,35.75
2018-12-15T01:15:27.142Z,37.67
2018-12-15T01:16:29.588Z,40.28
2018-12-15T01:17:32.024Z,41.45
2018-12-15T01:18:34.483Z,38.25
2018-12-15T01:19:36.947Z,40.50
2018-12-15T01:20:39.387Z,32.23
2018-12-15T01:21:41.840Z,39.25
2018-12-15T01:22:44.272Z,35.33
2018-12-15T01:23:46.719Z,32.38
2018-12-15T01:24:49.169Z,38.88
2018-12-15T01:25:51.614Z,35.45
2018-12-15T01:26:54.053Z,34.65
2018-12-15T01:27:56.502Z,38.45
2018-12-15T01:28:58.967Z,34.58
2018-12-15T01:30:01.415Z,36.77
2018-12-15T01:31:03.856Z,40.67
2018-12-15T01:32:06.313Z,32.00
2018-12-15T01:33:08.756Z,32.05
2018-12-15T01:34:11.213Z,38.30
2018-12-15T01:35:13.664Z,37.90
2018-12-15T01:36:16.156Z,41.05
2018-12-15T01:37:18.596Z,40.00
2018-12-15T01:38:21.036Z,34.58
2018-12-15T01:39:23.552Z,37.23
2018-12-15T01:40:25.995Z,38.98
2018-12-15T01:41:28.435Z,39.80
2018-12-15T01:42:30.933Z,37.00
2018-12-15T01:43:33.372Z,31.23
2018-12-15T01:44:35.844Z,40.17
2018-12-15T01:45:38.304Z,35.17
2018-12-15T01:46:40.743Z,38.48
2018-12-15T01:47:43.185Z,36.58
2018-12-15T01:48:45.623Z,35.75
2018-12-15T01:49:48.090Z,37.80
2018-12-15T01:50:50.540Z,36.17
2018-12-15T01:51:52.996Z,39.60
2018-12-15T01:52:55.438Z,41.02
2018-12-15T01:53:57.903Z,37.10
2018-12-15T01:55:00.379Z,37.00
2018-12-15T01:56:02.821Z,43.58
2018-12-15T01:57:05.287Z,35.85
2018-12-15T01:58:07.723Z,34.98
2018-12-15T01:59:10.183Z,36.30
2018-12-15T02:00:13.239Z,39.65
2018-12-15T02:01:15.687Z,41.90
2018-12-15T02:02:18.127Z,47.38
2018-12-15T02:03:20.635Z,48.70
2018-12-15T02:04:23.111Z,45.58
2018-12-15T02:05:25.570Z,47.90
2018-12-15T02:06:28.049Z,37.30
2018-12-15T02:07:30.493Z,45.15
2018-12-15T02:08:32.945Z,49.58
2018-12-15T02:09:35.440Z,53.50
2018-12-15T02:10:37.891Z,42.55
2018-12-15T02:11:40.357Z,43.45
2018-12-15T02:12:42.867Z,38.35
2018-12-15T02:13:45.307Z,37.40
2018-12-15T02:14:47.766Z,39.25
2018-12-15T02:15:50.244Z,40.98
2018-12-15T02:16:52.690Z,36.70
2018-12-15T02:17:55.188Z,41.48
2018-12-15T02:18:57.683Z,39.25
2018-12-15T02:20:00.121Z,35.52
2018-12-15T02:21:02.617Z,40.25
2018-12-15T02:22:05.054Z,54.77
2018-12-15T02:23:07.490Z,47.60
2018-12-15T02:24:09.973Z,51.42
2018-12-15T02:25:12.606Z,43.13
2018-12-15T02:26:15.083Z,44.20
2018-12-15T02:27:17.535Z,44.48
2018-12-15T02:28:19.996Z,44.77
2018-12-15T02:29:22.439Z,45.83
2018-12-15T02:30:25.067Z,41.33
2018-12-15T02:31:27.514Z,41.68
2018-12-15T02:32:29.963Z,57.60
2018-12-15T02:33:32.430Z,49.58
2018-12-15T02:34:34.869Z,50.48
2018-12-15T02:35:37.376Z,41.15
2018-12-15T02:36:39.840Z,41.30
2018-12-15T02:37:42.276Z,42.67
2018-12-15T02:38:44.795Z,36.48
2018-12-15T02:39:47.234Z,50.92
2018-12-15T02:40:50.624Z,49.13
2018-12-15T02:41:53.096Z,57.10
2018-12-15T02:42:55.535Z,48.75
2018-12-15T02:43:57.984Z,41.90
2018-12-15T02:45:00.421Z,55.98
2018-12-15T02:46:02.885Z,52.98
2018-12-15T02:47:05.335Z,41.30
2018-12-15T02:48:07.785Z,41.83
2018-12-15T02:49:10.223Z,42.13
2018-12-15T02:50:12.687Z,43.73
2018-12-15T02:51:15.144Z,50.00
2018-12-15T02:52:17.587Z,56.35
2018-12-15T02:53:20.030Z,53.42
2018-12-15T02:54:22.473Z,43.00
2018-12-15T02:55:24.960Z,41.15
2018-12-15T02:56:27.415Z,49.42
2018-12-15T02:57:29.868Z,45.73
2018-12-15T02:58:32.300Z,52.67
2018-12-15T02:59:34.750Z,48.50
2018-12-15T03:00:37.252Z,53.10
2018-12-15T03:01:39.702Z,42.58
2018-12-15T03:02:42.158Z,47.95
2018-12-15T03:03:44.689Z,41.85
2018-12-15T03:04:47.133Z,39.83
2018-12-15T03:05:49.573Z,40.95
2018-12-15T03:06:52.039Z,37.98
2018-12-15T03:07:54.502Z,46.33
2018-12-15T03:08:56.934Z,40.30
2018-12-15T03:09:59.367Z,37.65
2018-12-15T03:11:01.813Z,40.10
2018-12-15T03:12:04.273Z,44.42
2018-12-15T03:13:06.711Z,46.63
2018-12-15T03:14:09.151Z,43.90
2018-12-15T03:15:11.583Z,40.17
2018-12-15T03:16:14.013Z,48.45
2018-12-15T03:17:16.471Z,41.77
2018-12-15T03:18:18.922Z,48.68
2018-12-15T03:19:21.360Z,60.67
2018-12-15T03:20:23.800Z,64.00
2018-12-15T03:21:26.236Z,51.33
2018-12-15T03:22:28.783Z,50.95
2018-12-15T03:23:31.230Z,55.10
2018-12-15T03:24:33.679Z,47.33
2018-12-15T03:25:36.127Z,49.80
2018-12-15T03:26:38.588Z,52.62
2018-12-15T03:27:41.040Z,55.65
2018-12-15T03:28:43.482Z,43.68
2018-12-15T03:29:45.919Z,47.48
2018-12-15T03:30:48.355Z,43.73
2018-12-15T03:31:50.820Z,39.35
2018-12-15T03:32:53.290Z,42.85
2018-12-15T03:33:55.729Z,39.67
2018-12-15T03:34:58.166Z,43.45
2018-12-15T03:36:00.643Z,42.55
2018-12-15T03:37:03.080Z,45.85
2018-12-15T03:38:05.541Z,46.30
2018-12-15T03:39:07.971Z,48.55
2018-12-15T03:40:10.431Z,40.10
2018-12-15T03:41:12.862Z,51.68
2018-12-15T03:42:15.300Z,48.38
2018-12-15T03:43:17.758Z,62.80
2018-12-15T03:44:20.191Z,60.05
2018-12-15T03:45:22.642Z,67.58
2018-12-15T03:46:25.186Z,55.08
2018-12-15T03:47:27.654Z,54.90
2018-12-15T03:48:30.117Z,66.60
2018-12-15T03:49:32.567Z,61.25
2018-12-15T03:50:35.169Z,49.23
2018-12-15T03:51:37.611Z,42.78
2018-12-15T03:52:40.064Z,50.63
2018-12-15T03:53:42.512Z,55.05
2018-12-15T03:54:44.952Z,39.35
2018-12-15T03:55:47.399Z,48.20
2018-12-15T03:56:49.837Z,46.88
2018-12-15T03:57:52.292Z,51.63
2018-12-15T03:58:54.777Z,42.85
2018-12-15T03:59:57.241Z,37.53
2018-12-15T04:00:59.671Z,38.17
2018-12-15T04:02:02.124Z,36.90
2018-12-15T04:03:04.575Z,43.75
2018-12-15T04:04:08.730Z,34.98
2018-12-15T04:05:11.231Z,35.17
2018-12-15T04:06:13.677Z,38.00
2018-12-15T04:07:16.115Z,32.42
2018-12-15T04:08:18.590Z,34.58
2018-12-15T04:09:21.044Z,35.80
2018-12-15T04:10:23.496Z,35.05
2018-12-15T04:11:25.939Z,40.80
2018-12-15T04:12:28.399Z,41.42
2018-12-15T04:13:30.895Z,39.13
2018-12-15T04:14:33.357Z,44.58
2018-12-15T04:15:36.184Z,42.20
2018-12-15T04:16:38.619Z,40.35
2018-12-15T04:17:41.052Z,41.95
2018-12-15T04:18:43.649Z,43.90
2018-12-15T04:19:46.111Z,41.10
2018-12-15T04:20:48.554Z,44.35
2018-12-15T04:21:50.992Z,59.38
2018-12-15T04:22:53.432Z,47.08
2018-12-15T04:23:55.873Z,40.08
2018-12-15T04:24:58.346Z,41.00
2018-12-15T04:26:00.783Z,48.95
2018-12-15T04:27:03.226Z,46.30
2018-12-15T04:28:05.668Z,49.45
2018-12-15T04:29:10.087Z,48.35
2018-12-15T04:30:12.561Z,50.92
2018-12-15T04:31:15.001Z,51.02
2018-12-15T04:32:17.442Z,46.48
2018-12-15T04:33:19.886Z,40.35
2018-12-15T04:34:22.331Z,37.93
2018-12-15T04:35:24.804Z,39.98
2018-12-15T04:36:27.241Z,43.78
2018-12-15T04:37:29.674Z,48.68
2018-12-15T04:38:32.111Z,48.28
2018-12-15T04:39:34.545Z,53.40
2018-12-15T04:40:37.179Z,49.58
2018-12-15T04:41:39.642Z,47.80
2018-12-15T04:42:42.166Z,39.05
2018-12-15T04:43:44.711Z,40.75
2018-12-15T04:44:47.150Z,50.25
2018-12-15T04:45:49.725Z,49.65
2018-12-15T04:46:52.284Z,37.88
2018-12-15T04:47:54.719Z,44.75
2018-12-15T04:48:57.248Z,43.85
2018-12-15T04:49:59.684Z,44.23
2018-12-15T04:51:02.165Z,45.70
2018-12-15T04:52:04.737Z,43.63
2018-12-15T04:53:07.172Z,39.58
2018-12-15T04:54:09.615Z,41.23
2018-12-15T04:55:12.049Z,42.40
2018-12-15T04:56:14.520Z,35.58
2018-12-15T04:57:16.993Z,37.63
2018-12-15T04:58:19.548Z,38.30
2018-12-15T04:59:21.999Z,41.37
2018-12-15T05:00:24.450Z,38.45
2018-12-15T05:01:26.891Z,39.00
2018-12-15T05:02:29.346Z,37.65
2018-12-15T05:03:31.779Z,37.85
2018-12-15T05:04:34.211Z,42.62
2018-12-15T05:05:36.646Z,41.75
2018-12-15T05:06:39.537Z,41.10
2018-12-15T05:07:41.979Z,37.38
2018-12-15T05:08:44.425Z,36.00
2018-12-15T05:09:46.866Z,37.13
2018-12-15T05:10:49.299Z,40.85
2018-12-15T05:11:51.848Z,34.18
2018-12-15T05:12:54.295Z,45.33
2018-12-15T05:13:56.752Z,39.78
2018-12-15T05:14:59.182Z,31.42
2018-12-15T05:16:01.626Z,39.13
2018-12-15T05:17:04.083Z,42.27
2018-12-15T05:18:06.523Z,38.42
2018-12-15T05:19:08.992Z,41.68
2018-12-15T05:20:11.426Z,42.83
2018-12-15T05:21:13.862Z,40.43
2018-12-15T05:22:16.413Z,41.13
2018-12-15T05:23:18.868Z,38.98
2018-12-15T05:24:21.312Z,40.28
2018-12-15T05:25:23.800Z,45.73
2018-12-15T05:26:26.238Z,39.70
2018-12-15T05:27:28.892Z,37.08
2018-12-15T05:28:31.351Z,39.40
2018-12-15T05:29:33.794Z,36.13
2018-12-15T05:30:36.235Z,38.10
2018-12-15T05:31:38.702Z,31.57
2018-12-15T05:32:41.171Z,31.60
2018-12-15T05:33:43.633Z,30.52
2018-12-15T05:34:46.114Z,31.33
2018-12-15T05:35:48.583Z,34.43
2018-12-15T05:36:51.057Z,29.63
2018-12-15T05:37:53.523Z,30.72
2018-12-15T05:38:55.980Z,31.42
2018-12-15T05:39:58.418Z,31.97
2018-12-15T05:41:00.888Z,31.35
2018-12-15T05:42:03.340Z,27.70
2018-12-15T05:43:05.791Z,29.55
2018-12-15T05:44:08.238Z,31.65
2018-12-15T05:45:10.690Z,33.02
2018-12-15T05:46:13.144Z,32.30
2018-12-15T05:47:15.583Z,36.25
2018-12-15T05:48:24.823Z,35.28
2018-12-15T05:49:22.506Z,31.75
2018-12-15T05:50:25.016Z,31.97
2018-12-15T05:51:27.483Z,46.55
2018-12-15T05:52:29.950Z,28.42
2018-12-15T05:53:33.485Z,28.83
2018-12-15T05:54:35.930Z,28.85
2018-12-15T05:55:38.387Z,24.37
2018-12-15T05:56:40.868Z,24.72
2018-12-15T05:57:43.303Z,27.90
2018-12-15T05:58:45.756Z,29.95
2018-12-15T05:59:48.199Z,27.77
2018-12-15T06:00:50.631Z,32.03
2018-12-15T06:01:53.067Z,30.72
2018-12-15T06:02:55.523Z,29.50
2018-12-15T06:03:57.958Z,25.57
2018-12-15T06:05:00.485Z,27.27
2018-12-15T06:06:02.926Z,25.00
2018-12-15T06:07:05.371Z,29.42
2018-12-15T06:08:07.832Z,32.30
2018-12-15T06:09:10.279Z,29.35
2018-12-15T06:10:12.747Z,32.23
2018-12-15T06:11:15.179Z,28.95
2018-12-15T06:12:17.614Z,26.82
2018-12-15T06:13:20.092Z,27.02
2018-12-15T06:14:23.215Z,27.40
2018-12-15T06:15:25.642Z,25.82
2018-12-15T06:16:28.183Z,25.97
2018-12-15T06:17:30.614Z,25.90
2018-12-15T06:18:33.067Z,26.55
2018-12-15T06:19:35.721Z,25.27
2018-12-15T06:20:38.278Z,24.05
2018-12-15T06:21:40.758Z,26.93
2018-12-15T06:22:43.200Z,27.80
2018-12-15T06:23:45.692Z,27.30
2018-12-15T06:24:48.149Z,24.05
2018-12-15T06:25:50.581Z,21.70
2018-12-15T06:26:53.046Z,24.72
2018-12-15T06:27:55.579Z,23.35
2018-12-15T06:28:58.028Z,22.05
2018-12-15T06:30:00.500Z,25.37
2018-12-15T06:31:02.941Z,23.32
2018-12-15T06:32:05.389Z,24.43
2018-12-15T06:33:07.823Z,25.80
2018-12-15T06:34:10.267Z,24.12
2018-12-15T06:35:12.714Z,25.92
2018-12-15T06:36:15.149Z,29.23
2018-12-15T06:37:17.592Z,26.57
2018-12-15T06:38:20.063Z,28.47
2018-12-15T06:39:22.615Z,29.05
2018-12-15T06:40:25.451Z,29.48
2018-12-15T06:41:27.914Z,27.60
2018-12-15T06:42:30.359Z,26.77
2018-12-15T06:43:33.088Z,24.92
2018-12-15T06:44:35.539Z,22.55
2018-12-15T06:45:38.096Z,25.10
2018-12-15T06:46:40.535Z,23.50
2018-12-15T06:47:42.968Z,22.07
2018-12-15T06:48:45.434Z,23.35
2018-12-15T06:49:47.980Z,31.15
2018-12-15T06:50:50.451Z,27.22
2018-12-15T06:51:52.900Z,30.90
2018-12-15T06:52:55.340Z,25.12
2018-12-15T06:53:57.776Z,29.82
2018-12-15T06:55:00.237Z,28.25
2018-12-15T06:56:02.724Z,30.37
2018-12-15T06:57:05.186Z,25.05
2018-12-15T06:58:07.658Z,28.35
2018-12-15T06:59:10.118Z,29.27
2018-12-15T07:00:13.542Z,27.02
2018-12-15T07:01:15.997Z,24.92
2018-12-15T07:02:18.464Z,24.77
2018-12-15T07:03:20.919Z,26.07
2018-12-15T07:04:23.380Z,21.75
2018-12-15T07:05:25.895Z,20.82
2018-12-15T07:06:28.382Z,21.40
2018-12-15T07:07:30.844Z,22.60
2018-12-15T07:08:33.289Z,22.00
2018-12-15T07:09:36.919Z,22.45
2018-12-15T07:10:39.378Z,25.68
2018-12-15T07:11:41.859Z,20.43
2018-12-15T07:12:44.814Z,21.52
2018-12-15T07:13:47.254Z,21.55
2018-12-15T07:14:49.721Z,48.25
2018-12-15T07:15:52.257Z,27.32
2018-12-15T07:16:54.876Z,23.20
2018-12-15T07:17:57.342Z,20.35
2018-12-15T07:18:59.838Z,24.75
2018-12-15T07:20:02.685Z,20.25
2018-12-15T07:21:05.141Z,17.35
2018-12-15T07:22:07.595Z,19.40
2018-12-15T07:23:10.060Z,18.57
2018-12-15T07:24:12.579Z,26.42
2018-12-15T07:25:15.049Z,23.57
2018-12-15T07:26:17.565Z,19.80
2018-12-15T07:27:20.049Z,19.32
2018-12-15T07:28:23.003Z,20.57
2018-12-15T07:29:25.780Z,21.30
2018-12-15T07:30:28.577Z,22.25
2018-12-15T07:31:31.129Z,25.00
2018-12-15T07:32:34.266Z,19.98
2018-12-15T07:33:36.742Z,22.27
2018-12-15T07:34:47.359Z,20.90
2018-12-15T07:35:50.137Z,29.67
2018-12-15T07:36:52.747Z,24.47
2018-12-15T07:37:55.206Z,20.08
2018-12-15T07:38:58.071Z,27.85
2018-12-15T07:40:01.013Z,17.65
2018-12-15T07:41:03.851Z,20.32
2018-12-15T07:42:07.683Z,27.85
2018-12-15T07:43:10.465Z,20.30
2018-12-15T07:44:12.907Z,22.73
2018-12-15T07:45:15.347Z,19.40
2018-12-15T07:46:17.785Z,20.20
2018-12-15T07:47:20.251Z,27.70
2018-12-15T07:48:22.707Z,20.80
2018-12-15T07:49:25.147Z,22.60
2018-12-15T07:50:27.622Z,21.80
2018-12-15T07:51:30.167Z,22.52
2018-12-15T07:52:32.725Z,21.97
2018-12-15T07:53:35.345Z,22.55
2018-12-15T07:54:37.783Z,21.45
2018-12-15T07:55:40.226Z,18.20
2018-12-15T07:56:42.671Z,20.32
2018-12-15T07:57:45.133Z,18.12
2018-12-15T07:58:47.600Z,20.00
2018-12-15T07:59:50.061Z,20.70
2018-12-15T08:00:52.508Z,23.57
2018-12-15T08:01:55.094Z,20.08
2018-12-15T08:02:57.627Z,22.02
2018-12-15T08:04:00.147Z,27.35
2018-12-15T08:05:02.592Z,19.65
2018-12-15T08:06:05.033Z,27.42
2018-12-15T08:07:07.501Z,31.37
2018-12-15T08:08:09.972Z,22.17
2018-12-15T08:09:12.444Z,24.25
2018-12-15T08:10:16.876Z,32.83
2018-12-15T08:11:24.962Z,26.17
2018-12-15T08:12:33.016Z,26.25
2018-12-15T08:13:35.587Z,25.55
2018-12-15T08:14:38.102Z,29.57
2018-12-15T08:15:40.584Z,29.65
2018-12-15T08:16:43.106Z,30.70
2018-12-15T08:17:45.619Z,24.55
2018-12-15T08:18:48.142Z,28.92
2018-12-15T08:19:51.823Z,24.87
2018-12-15T08:20:54.348Z,27.22
2018-12-15T08:21:57.080Z,31.68
2018-12-15T08:22:59.690Z,31.17
2018-12-15T08:24:02.408Z,30.72
2018-12-15T08:25:05.916Z,24.52
2018-12-15T08:26:09.013Z,26.48
2018-12-15T08:27:11.544Z,24.23
2018-12-15T08:28:14.055Z,30.12
2018-12-15T08:29:16.541Z,27.85
2018-12-15T08:30:19.020Z,25.52
2018-12-15T08:31:21.503Z,30.40
2018-12-15T08:32:24.168Z,26.12
2018-12-15T08:33:26.774Z,26.97
2018-12-15T08:34:30.948Z,24.35
2018-12-15T08:35:33.407Z,27.98
2018-12-15T08:36:35.912Z,28.35
2018-12-15T08:37:41.641Z,30.97
2018-12-15T08:38:44.143Z,24.40
2018-12-15T08:39:47.685Z,28.47
2018-12-15T08:40:50.222Z,29.15
2018-12-15T08:41:52.706Z,26.82
2018-12-15T08:42:56.023Z,27.85
2018-12-15T08:43:58.563Z,24.98
2018-12-15T08:45:01.031Z,35.88
2018-12-15T08:46:04.685Z,27.58
2018-12-15T08:47:07.148Z,30.45
2018-12-15T08:48:09.865Z,31.25
2018-12-15T08:49:12.553Z,30.52
2018-12-15T08:50:16.053Z,29.10
2018-12-15T08:51:18.508Z,28.32
2018-12-15T08:52:20.950Z,26.62
2018-12-15T08:53:23.589Z,28.02
2018-12-15T08:54:26.060Z,26.77
2018-12-15T08:55:28.526Z,28.55
2018-12-15T08:56:30.978Z,30.05
2018-12-15T08:57:33.414Z,29.30
2018-12-15T08:58:35.871Z,23.95
2018-12-15T08:59:38.354Z,28.00
2018-12-15T09:00:40.838Z,25.80
2018-12-15T09:01:43.278Z,28.70
2018-12-15T09:02:45.713Z,29.07
2018-12-15T09:03:48.151Z,29.00
2018-12-15T09:04:50.605Z,30.43
2018-12-15T09:05:53.138Z,30.72
2018-12-15T09:06:55.591Z,26.45
2018-12-15T09:07:58.047Z,34.85
2018-12-15T09:09:00.491Z,25.05
2018-12-15T09:10:03.043Z,29.90
2018-12-15T09:11:05.593Z,29.80
2018-12-15T09:12:08.059Z,29.05
2018-12-15T09:13:10.494Z,29.18
2018-12-15T09:14:12.931Z,33.38
2018-12-15T09:15:15.378Z,34.88
2018-12-15T09:16:17.845Z,28.42
2018-12-15T09:17:20.322Z,31.85
2018-12-15T09:18:22.777Z,29.50
2018-12-15T09:19:25.231Z,25.77
2018-12-15T09:20:27.769Z,26.80
2018-12-15T09:21:30.243Z,28.12
2018-12-15T09:22:32.699Z,27.13
2018-12-15T09:23:35.154Z,27.22
2018-12-15T09:24:37.698Z,31.27
2018-12-15T09:25:40.129Z,30.72
2018-12-15T09:26:42.603Z,31.10
2018-12-15T09:27:45.063Z,33.25
2018-12-15T09:28:47.579Z,35.95
2018-12-15T09:29:50.057Z,34.60
2018-12-15T09:30:52.506Z,30.52
2018-12-15T09:31:55.004Z,42.05
2018-12-15T09:32:57.468Z,30.00
2018-12-15T09:33:59.906Z,32.75
2018-12-15T09:35:02.382Z,29.45
2018-12-15T09:36:04.860Z,32.10
2018-12-15T09:37:07.320Z,29.27
2018-12-15T09:38:09.751Z,33.88
2018-12-15T09:39:12.238Z,31.10
2018-12-15T09:40:14.760Z,35.13
2018-12-15T09:41:17.210Z,28.47
2018-12-15T09:42:19.714Z,34.92
2018-12-15T09:43:22.163Z,32.45
2018-12-15T09:44:24.621Z,27.58
2018-12-15T09:45:27.069Z,32.93
2018-12-15T09:46:29.592Z,30.12
2018-12-15T09:47:32.054Z,28.05
2018-12-15T09:48:34.526Z,35.40
2018-12-15T09:49:36.958Z,31.50
2018-12-15T09:50:39.383Z,29.87
2018-12-15T09:51:41.912Z,33.28
2018-12-15T09:52:44.374Z,30.17
2018-12-15T09:53:46.838Z,30.55
2018-12-15T09:54:49.284Z,33.73
2018-12-15T09:55:51.724Z,37.58
2018-12-15T09:56:54.167Z,40.63
2018-12-15T09:57:56.619Z,37.63
2018-12-15T09:58:59.172Z,36.83
2018-12-15T10:00:01.603Z,31.85
2018-12-15T10:01:04.171Z,31.73
2018-12-15T10:02:06.696Z,35.80
2018-12-15T10:03:09.179Z,38.55
2018-12-15T10:04:11.624Z,35.33
2018-12-15T10:05:14.070Z,29.35
2018-12-15T10:06:16.505Z,32.85
2018-12-15T10:07:18.950Z,33.98
2018-12-15T10:08:21.433Z,34.10
2018-12-15T10:09:23.931Z,33.00
2018-12-15T10:10:26.457Z,31.57
2018-12-15T10:11:28.927Z,29.23
2018-12-15T10:12:31.443Z,33.30
2018-12-15T10:13:33.899Z,36.80
2018-12-15T10:14:36.379Z,30.60
2018-12-15T10:15:38.858Z,34.30
2018-12-15T10:16:41.299Z,38.28
2018-12-15T10:17:43.731Z,28.77
2018-12-15T10:18:46.229Z,41.23
2018-12-15T10:19:48.724Z,28.05
2018-12-15T10:20:51.156Z,34.67
2018-12-15T10:21:53.578Z,35.40
2018-12-15T10:22:56.029Z,36.15
2018-12-15T10:23:58.538Z,52.60
2018-12-15T10:25:00.981Z,39.33
2018-12-15T10:26:03.484Z,30.08
2018-12-15T10:27:05.918Z,29.37
2018-12-15T10:28:08.353Z,32.42
2018-12-15T10:29:12.807Z,32.38
2018-12-15T10:30:20.999Z,32.45
2018-12-15T10:31:29.033Z,30.02
2018-12-15T10:34:08.166Z,33.65
2018-12-15T10:35:10.635Z,27.30
2018-12-15T10:36:13.086Z,33.78
2018-12-15T10:37:15.523Z,27.80
2018-12-15T10:38:17.989Z,29.63
2018-12-15T10:39:20.565Z,26.35
2018-12-15T10:40:23.029Z,33.73
2018-12-15T10:41:25.494Z,34.38
2018-12-15T10:42:27.945Z,36.05
2018-12-15T10:43:30.463Z,30.85
2018-12-15T10:44:32.924Z,36.88
2018-12-15T10:45:35.382Z,29.37
2018-12-15T10:46:37.818Z,32.93
2018-12-15T10:47:40.299Z,92.82
2018-12-15T10:48:42.745Z,47.53
2018-12-15T10:49:45.240Z,32.33
2018-12-15T10:50:47.707Z,40.23
2018-12-15T10:51:50.168Z,30.92
2018-12-15T10:52:52.611Z,27.82
2018-12-15T10:53:55.043Z,27.95
2018-12-15T10:54:57.503Z,38.73
2018-12-15T10:56:00.131Z,25.45
2018-12-15T10:57:02.569Z,34.80
2018-12-15T10:58:05.067Z,30.60
2018-12-15T10:59:07.516Z,34.38
2018-12-15T11:00:11.954Z,32.65
2018-12-15T11:01:20.078Z,30.25
2018-12-15T11:02:22.520Z,31.27
2018-12-15T11:03:24.963Z,29.57
2018-12-15T11:04:27.394Z,28.50
2018-12-15T11:05:29.847Z,34.90
2018-12-15T11:06:32.298Z,37.05
2018-12-15T11:07:34.750Z,36.65
2018-12-15T11:08:37.196Z,42.25
2018-12-15T11:09:39.638Z,41.95
2018-12-15T11:10:42.098Z,48.23
2018-12-15T11:11:44.572Z,41.90
2018-12-15T11:12:47.003Z,49.03
2018-12-15T11:13:49.430Z,33.13
2018-12-15T11:14:51.870Z,37.05
2018-12-15T11:15:54.318Z,34.40
2018-12-15T11:16:56.777Z,34.73
2018-12-15T11:17:59.205Z,34.83
2018-12-15T11:19:01.636Z,28.65
2018-12-15T11:20:05.174Z,32.65
2018-12-15T11:21:07.725Z,30.48
2018-12-15T11:22:10.167Z,28.50
2018-12-15T11:23:12.606Z,32.58
2018-12-15T11:24:15.043Z,30.68
2018-12-15T11:25:17.478Z,34.20
2018-12-15T11:26:19.933Z,34.30
2018-12-15T11:27:22.411Z,28.98
2018-12-15T11:28:24.864Z,36.05
2018-12-15T11:29:27.306Z,29.65
2018-12-15T11:30:29.752Z,32.60
2018-12-15T11:31:32.202Z,30.70
2018-12-15T11:32:34.655Z,30.20
2018-12-15T11:33:37.122Z,35.68
2018-12-15T11:34:39.558Z,29.95
2018-12-15T11:35:42.004Z,30.95
2018-12-15T11:36:44.457Z,28.15
2018-12-15T11:37:46.944Z,27.70
2018-12-15T11:38:49.535Z,32.38
2018-12-15T11:39:51.995Z,33.95
2018-12-15T11:40:54.498Z,31.23
2018-12-15T11:41:57.001Z,33.63
2018-12-15T11:42:59.455Z,32.13
2018-12-15T11:44:01.934Z,31.68
2018-12-15T11:45:05.469Z,32.30
2018-12-15T11:46:07.974Z,32.42
2018-12-15T11:47:10.455Z,31.27
2018-12-15T11:48:13.433Z,32.75
2018-12-15T11:49:16.035Z,24.67
2018-12-15T11:50:18.496Z,30.37
2018-12-15T11:51:20.932Z,31.97
2018-12-15T11:52:23.399Z,33.70
2018-12-15T11:53:25.856Z,32.38
2018-12-15T11:54:28.324Z,41.98
2018-12-15T11:55:30.814Z,44.60
2018-12-15T11:56:33.291Z,36.20
2018-12-15T11:57:35.786Z,47.03
2018-12-15T11:58:38.239Z,31.30
2018-12-15T11:59:40.735Z,28.83
2018-12-15T12:00:43.168Z,28.25
2018-12-15T12:01:45.635Z,35.50
2018-12-15T12:02:48.117Z,31.02
2018-12-15T12:03:50.836Z,31.05
2018-12-15T12:04:53.327Z,32.67
2018-12-15T12:05:55.775Z,31.75
2018-12-15T12:06:58.220Z,33.28
2018-12-15T12:08:00.683Z,30.80
2018-12-15T12:09:04.088Z,32.58
2018-12-15T12:10:07.234Z,28.52
2018-12-15T12:11:09.713Z,34.25
2018-12-15T12:12:12.173Z,33.50
2018-12-15T12:13:14.628Z,30.70
2018-12-15T12:14:17.134Z,30.90
2018-12-15T12:15:19.661Z,31.25
2018-12-15T12:16:22.128Z,28.52
2018-12-15T12:17:24.575Z,33.25
2018-12-15T12:18:27.029Z,32.40
2018-12-15T12:19:29.481Z,31.25
2018-12-15T12:20:31.920Z,26.57
2018-12-15T12:21:34.388Z,33.35
2018-12-15T12:22:37.188Z,29.30
2018-12-15T12:23:39.642Z,38.38
2018-12-15T12:24:42.249Z,28.25
2018-12-15T12:25:44.680Z,29.70
2018-12-15T12:26:47.117Z,30.35
2018-12-15T12:27:49.567Z,29.10
2018-12-15T12:28:52.157Z,30.57
2018-12-15T12:29:54.632Z,32.93
2018-12-15T12:30:57.186Z,26.80
2018-12-15T12:31:59.686Z,29.25
2018-12-15T12:33:02.131Z,24.25
2018-12-15T12:34:04.595Z,28.87
2018-12-15T12:35:07.136Z,33.20
2018-12-15T12:36:09.582Z,29.37
2018-12-15T12:37:12.025Z,33.38
2018-12-15T12:38:14.463Z,34.27
2018-12-15T12:39:16.916Z,31.17
2018-12-15T12:40:19.364Z,28.27
2018-12-15T12:41:21.814Z,27.13
2018-12-15T12:42:24.255Z,29.57
2018-12-15T12:43:26.697Z,26.82
2018-12-15T12:44:29.151Z,27.07
2018-12-15T12:45:31.835Z,27.75
2018-12-15T12:46:34.346Z,27.85
2018-12-15T12:47:36.779Z,36.35
2018-12-15T12:48:39.344Z,29.15
2018-12-15T12:49:41.818Z,26.62
2018-12-15T12:50:44.266Z,28.70
2018-12-15T12:51:46.718Z,26.70
2018-12-15T12:52:49.155Z,34.20
2018-12-15T12:53:51.587Z,28.95
2018-12-15T12:54:54.046Z,25.92
2018-12-15T12:55:56.502Z,27.87
2018-12-15T12:56:58.935Z,28.02
2018-12-15T12:58:01.376Z,24.25
2018-12-15T12:59:03.896Z,26.17
2018-12-15T13:00:06.717Z,31.42
2018-12-15T13:01:09.171Z,29.50
2018-12-15T13:02:11.612Z,32.53
2018-12-15T13:03:14.058Z,35.73
2018-12-15T13:04:16.492Z,32.45
2018-12-15T13:05:18.945Z,44.42
2018-12-15T13:06:21.393Z,55.50
2018-12-15T13:07:23.823Z,94.03
2018-12-15T13:08:26.280Z,33.60
2018-12-15T13:09:28.723Z,25.97
2018-12-15T13:10:31.176Z,23.98
2018-12-15T13:11:33.919Z,24.02
2018-12-15T13:12:36.585Z,27.45
2018-12-15T13:13:39.871Z,22.55
2018-12-15T13:14:42.686Z,25.17
2018-12-15T13:15:45.253Z,24.07
2018-12-15T13:16:47.788Z,22.50
2018-12-15T13:17:50.282Z,25.40
2018-12-15T13:18:53.876Z,21.60
2018-12-15T13:19:56.488Z,26.17
2018-12-15T13:20:59.058Z,26.68
2018-12-15T13:22:01.541Z,21.87
2018-12-15T13:23:04.041Z,23.87
2018-12-15T13:24:06.830Z,26.10
2018-12-15T13:25:09.339Z,29.63
2018-12-15T13:26:11.794Z,25.70
2018-12-15T13:27:14.246Z,23.42